createdAt,value
2019-05-18T00:00:40.096Z,19.37
2019-05-18T00:03:11.209Z,19.17
2019-05-18T00:05:42.623Z,18.87
2019-05-18T00:08:13.670Z,19.10
2019-05-18T00:10:44.746Z,18.93
2019-05-18T00:13:16.158Z,19.67
2019-05-18T00:15:47.300Z,19.13
2019-05-18T00:18:18.748Z,19.70
2019-05-18T00:20:50.235Z,20.47
2019-05-18T00:23:21.228Z,20.27
2019-05-18T00:25:52.731Z,19.83
2019-05-18T00:28:24.053Z,19.63
2019-05-18T00:30:55.080Z,20.17
2019-05-18T00:33:26.239Z,19.43
2019-05-18T00:35:57.308Z,19.33
2019-05-18T00:38:28.773Z,18.83
2019-05-18T00:40:59.815Z,18.30
2019-05-18T00:43:31.280Z,19.83
2019-05-18T00:46:02.652Z,19.43
2019-05-18T00:48:33.680Z,19.50
2019-05-18T00:51:05.156Z,18.47
2019-05-18T00:53:36.212Z,18.60
2019-05-18T00:56:07.730Z,19.50
2019-05-18T00:58:38.793Z,19.83
2019-05-18T01:01:10.694Z,19.00
2019-05-18T01:03:41.671Z,19.20
2019-05-18T01:06:12.746Z,18.13
2019-05-18T01:08:44.166Z,19.80
2019-05-18T01:11:15.214Z,19.67
2019-05-18T01:13:46.253Z,19.50
2019-05-18T01:16:17.458Z,19.97
2019-05-18T01:18:48.521Z,21.00
2019-05-18T01:21:19.884Z,19.60
2019-05-18T01:23:50.989Z,18.70
2019-05-18T01:26:23.484Z,19.60
2019-05-18T01:28:57.751Z,20.27
2019-05-18T01:31:29.149Z,20.43
2019-05-18T01:34:00.203Z,19.90
2019-05-18T01:36:31.628Z,20.30
2019-05-18T01:39:02.678Z,20.37
2019-05-18T01:41:33.839Z,19.50
2019-05-18T01:44:04.959Z,19.43
2019-05-18T01:46:36.146Z,19.47
2019-05-18T01:49:07.555Z,19.70
2019-05-18T01:51:38.590Z,18.70
2019-05-18T01:54:09.667Z,19.47
2019-05-18T01:56:40.683Z,19.73
2019-05-18T01:59:11.817Z,18.83
2019-05-18T02:01:43.143Z,17.87
2019-05-18T02:04:14.467Z,18.50
2019-05-18T02:06:45.539Z,19.27
2019-05-18T02:09:16.601Z,18.80
2019-05-18T02:11:47.685Z,19.83
2019-05-18T02:14:18.714Z,18.43
2019-05-18T02:16:49.858Z,18.27
2019-05-18T02:19:20.819Z,19.40
2019-05-18T02:21:52.213Z,19.63
2019-05-18T02:24:23.341Z,19.70
2019-05-18T02:26:54.768Z,19.23
2019-05-18T02:29:26.763Z,18.87
2019-05-18T02:31:57.879Z,18.97
2019-05-18T02:34:29.242Z,18.80
2019-05-18T02:37:00.355Z,19.10
2019-05-18T02:39:31.460Z,18.40
2019-05-18T03:08:23.176Z,17.70
2019-05-18T03:10:54.547Z,16.97
2019-05-18T03:13:25.972Z,18.37
2019-05-18T03:15:57.262Z,17.60
2019-05-18T03:18:28.402Z,15.97
2019-05-18T03:20:59.511Z,16.73
2019-05-18T03:23:30.533Z,16.50
2019-05-18T03:26:01.620Z,16.07
2019-05-18T03:28:32.598Z,17.40
2019-05-18T03:31:03.658Z,16.90
2019-05-18T03:33:34.753Z,15.63
2019-05-18T03:36:05.849Z,17.63
2019-05-18T03:38:36.869Z,17.60
2019-05-18T03:41:07.910Z,16.93
2019-05-18T03:43:39.004Z,17.03
2019-05-18T03:46:10.380Z,16.70
2019-05-18T03:48:41.338Z,16.57
2019-05-18T03:51:12.356Z,17.63
2019-05-18T03:53:44.494Z,16.67
2019-05-18T03:56:15.689Z,16.50
2019-05-18T03:58:47.186Z,17.63
2019-05-18T04:01:18.471Z,16.87
2019-05-18T04:03:49.391Z,17.60
2019-05-18T04:06:20.834Z,19.13
2019-05-18T04:08:52.177Z,16.57
2019-05-18T04:11:23.187Z,17.60
2019-05-18T04:13:54.128Z,18.37
2019-05-18T04:16:25.395Z,17.50
2019-05-18T04:18:56.817Z,18.23
2019-05-18T04:21:28.601Z,17.57
2019-05-18T04:23:59.617Z,17.47
2019-05-18T04:26:30.891Z,18.80
2019-05-18T04:29:02.175Z,19.80
2019-05-18T04:31:33.217Z,19.63
2019-05-18T04:34:04.708Z,17.57
2019-05-18T04:36:36.824Z,18.00
2019-05-18T04:39:07.865Z,18.50
2019-05-18T04:41:38.860Z,18.50
2019-05-18T04:44:10.887Z,18.43
2019-05-18T04:46:41.886Z,19.42
2019-05-18T04:49:12.818Z,18.83
2019-05-18T04:51:44.158Z,18.83
2019-05-18T04:54:16.148Z,19.53
2019-05-18T04:56:47.255Z,18.57
2019-05-18T04:59:19.277Z,19.07
2019-05-18T05:01:50.366Z,19.67
2019-05-18T05:04:21.957Z,19.40
2019-05-18T05:06:53.020Z,20.13
2019-05-18T05:09:23.944Z,20.17
2019-05-18T05:11:54.882Z,20.30
2019-05-18T05:14:25.859Z,19.23
2019-05-18T05:16:56.793Z,19.33
2019-05-18T05:19:27.758Z,18.83
2019-05-18T05:21:58.675Z,18.97
2019-05-18T05:24:29.697Z,18.30
2019-05-18T05:27:00.612Z,17.93
2019-05-18T05:29:31.904Z,18.73
2019-05-18T05:32:03.159Z,18.53
2019-05-18T05:34:34.157Z,18.70
2019-05-18T05:37:05.265Z,19.30
2019-05-18T05:39:36.557Z,18.57
2019-05-18T05:42:07.574Z,18.93
2019-05-18T05:44:38.484Z,18.77
2019-05-18T05:47:09.519Z,18.10
2019-05-18T05:49:40.807Z,18.57
2019-05-18T05:52:11.823Z,18.57
2019-05-18T05:54:43.010Z,19.00
2019-05-18T05:57:13.926Z,19.50
2019-05-18T05:59:45.306Z,20.33
2019-05-18T06:02:16.266Z,19.10
2019-05-18T06:04:47.629Z,20.73
2019-05-18T06:07:18.736Z,20.57
2019-05-18T06:09:49.663Z,19.87
2019-05-18T06:12:20.647Z,20.67
2019-05-18T06:14:52.023Z,20.63
2019-05-18T06:17:22.984Z,21.37
2019-05-18T06:19:54.725Z,22.17
2019-05-18T06:22:26.145Z,21.33
2019-05-18T06:24:57.170Z,21.17
2019-05-18T06:27:29.683Z,23.13
2019-05-18T06:30:00.673Z,22.43
2019-05-18T06:32:32.057Z,24.13
2019-05-18T06:35:03.737Z,23.67
2019-05-18T06:37:34.660Z,24.13
2019-05-18T06:40:07.290Z,24.70
2019-05-18T06:42:38.603Z,26.73
2019-05-18T06:45:09.957Z,28.30
2019-05-18T06:47:41.255Z,27.07
2019-05-18T06:50:13.389Z,29.87
2019-05-18T06:52:44.869Z,33.17
2019-05-18T06:55:16.030Z,32.67
2019-05-18T06:57:47.215Z,33.50
2019-05-18T07:00:18.396Z,32.10
2019-05-18T07:02:50.114Z,32.57
2019-05-18T07:05:23.347Z,34.27
2019-05-18T07:07:54.291Z,36.53
2019-05-18T07:10:25.243Z,36.60
2019-05-18T07:12:56.353Z,37.37
2019-05-18T07:15:27.409Z,38.40
2019-05-18T07:17:58.436Z,37.50
2019-05-18T07:20:29.823Z,37.40
2019-05-18T07:23:01.286Z,33.53
2019-05-18T07:25:32.287Z,35.67
2019-05-18T07:28:03.256Z,35.77
2019-05-18T07:30:34.266Z,36.00
2019-05-18T07:33:05.306Z,34.27
2019-05-18T07:35:36.350Z,36.07
2019-05-18T07:38:07.634Z,38.53
2019-05-18T07:40:38.957Z,40.97
2019-05-18T07:43:10.085Z,39.07
2019-05-18T07:45:41.103Z,38.17
2019-05-18T07:48:12.199Z,37.87
2019-05-18T07:50:43.702Z,36.13
2019-05-18T07:53:14.800Z,38.67
2019-05-18T07:55:45.830Z,38.93
2019-05-18T07:58:17.221Z,37.20
2019-05-18T08:00:49.574Z,37.03
2019-05-18T08:03:21.653Z,36.97
2019-05-18T08:05:52.755Z,36.37
2019-05-18T08:08:23.786Z,36.83
2019-05-18T08:10:54.803Z,35.17
2019-05-18T08:13:25.922Z,35.70
2019-05-18T08:15:58.024Z,35.53
2019-05-18T08:18:29.025Z,34.97
2019-05-18T08:21:00.953Z,35.03
2019-05-18T08:23:32.478Z,35.00
2019-05-18T08:26:04.192Z,36.13
2019-05-18T08:28:35.239Z,36.50
2019-05-18T08:31:06.168Z,36.13
2019-05-18T08:33:37.105Z,35.20
2019-05-18T08:36:08.273Z,35.77
2019-05-18T08:38:39.213Z,34.97
2019-05-18T08:41:10.597Z,35.50
2019-05-18T08:43:42.026Z,33.50
2019-05-18T08:46:13.141Z,34.90
2019-05-18T08:48:44.667Z,34.60
2019-05-18T08:51:15.749Z,34.37
2019-05-18T08:53:46.746Z,35.57
2019-05-18T08:56:17.878Z,36.03
2019-05-18T08:58:49.522Z,34.33
2019-05-18T09:01:20.934Z,33.70
2019-05-18T09:03:52.315Z,32.73
2019-05-18T09:06:23.405Z,35.17
2019-05-18T09:08:54.440Z,32.23
2019-05-18T09:11:25.559Z,31.57
2019-05-18T09:13:56.583Z,33.37
2019-05-18T09:16:28.325Z,33.07
2019-05-18T09:18:59.614Z,31.87
2019-05-18T09:21:30.866Z,30.93
2019-05-18T09:24:01.811Z,31.93
2019-05-18T09:26:32.875Z,32.67
2019-05-18T09:29:03.902Z,32.17
2019-05-18T09:31:35.067Z,31.67
2019-05-18T09:34:05.997Z,31.83
2019-05-18T09:36:38.260Z,31.30
2019-05-18T09:39:09.286Z,32.20
2019-05-18T09:41:41.026Z,30.17
2019-05-18T09:44:12.160Z,30.77
2019-05-18T09:46:43.250Z,29.40
2019-05-18T09:49:14.339Z,31.17
2019-05-18T09:51:45.478Z,30.63
2019-05-18T09:54:16.506Z,30.27
2019-05-18T09:56:49.340Z,30.33
2019-05-18T09:59:20.371Z,30.17
2019-05-18T10:01:51.407Z,29.50
2019-05-18T10:04:22.834Z,29.07
2019-05-18T10:06:54.191Z,28.77
2019-05-18T10:09:25.523Z,30.13
2019-05-18T10:11:57.107Z,32.13
2019-05-18T10:14:28.531Z,29.10
2019-05-18T10:16:59.500Z,27.97
2019-05-18T10:19:31.947Z,28.57
2019-05-18T10:22:02.902Z,29.13
2019-05-18T10:24:34.331Z,28.20
2019-05-18T10:27:05.680Z,27.87
2019-05-18T10:29:36.620Z,28.47
2019-05-18T10:32:07.628Z,29.45
2019-05-18T10:34:38.817Z,29.07
2019-05-18T10:37:09.809Z,27.37
2019-05-18T10:39:41.039Z,27.00
2019-05-18T10:42:12.121Z,27.63
2019-05-18T10:44:43.034Z,27.17
2019-05-18T10:47:14.037Z,27.75
2019-05-18T10:49:45.425Z,26.10
2019-05-18T10:52:16.370Z,24.72
2019-05-18T10:54:47.447Z,26.57
2019-05-18T10:57:18.762Z,26.93
2019-05-18T10:59:50.055Z,27.50
2019-05-18T11:02:21.156Z,27.67
2019-05-18T11:04:52.224Z,26.80
2019-05-18T11:07:23.433Z,25.82
2019-05-18T11:09:54.790Z,24.47
2019-05-18T11:12:25.805Z,24.65
2019-05-18T11:14:56.912Z,24.82
2019-05-18T11:17:28.320Z,23.98
2019-05-18T11:19:59.424Z,23.15
2019-05-18T11:22:30.842Z,24.72
2019-05-18T11:25:01.964Z,23.10
2019-05-18T11:27:33.394Z,23.30
2019-05-18T11:30:06.030Z,23.70
2019-05-18T11:32:37.200Z,24.20
2019-05-18T11:35:11.259Z,23.47
2019-05-18T11:37:42.819Z,24.65
2019-05-18T11:40:14.145Z,24.87
2019-05-18T11:42:45.176Z,23.47
2019-05-18T11:45:17.392Z,24.82
2019-05-18T11:47:49.070Z,23.38
2019-05-18T11:50:20.118Z,23.22
2019-05-18T11:52:51.548Z,22.90
2019-05-18T11:55:22.588Z,23.32
2019-05-18T11:57:53.602Z,22.93
2019-05-18T12:00:25.433Z,23.07
2019-05-18T12:02:56.768Z,22.87
2019-05-18T12:05:27.854Z,22.82
2019-05-18T12:07:58.893Z,22.85
2019-05-18T12:10:30.211Z,21.10
2019-05-18T12:13:01.278Z,21.87
2019-05-18T12:15:33.114Z,22.32
2019-05-18T12:18:04.214Z,22.37
2019-05-18T12:20:35.317Z,21.68
2019-05-18T12:23:08.526Z,21.40
2019-05-18T12:25:39.276Z,19.95
2019-05-18T12:28:10.896Z,18.87
2019-05-18T12:30:43.399Z,21.23
2019-05-18T12:33:14.903Z,20.52
2019-05-18T12:35:45.928Z,18.57
2019-05-18T12:38:17.520Z,19.00
2019-05-18T12:40:48.455Z,18.85
2019-05-18T12:43:19.411Z,16.42
2019-05-18T12:45:50.535Z,16.25
2019-05-18T12:48:21.831Z,16.75
2019-05-18T12:50:52.949Z,18.65
2019-05-18T12:53:24.028Z,17.50
2019-05-18T12:55:55.299Z,17.37
2019-05-18T12:58:26.524Z,14.10
2019-05-18T13:00:57.907Z,14.33
2019-05-18T13:03:32.096Z,13.50
2019-05-18T13:06:03.480Z,12.98
2019-05-18T13:08:37.286Z,14.83
2019-05-18T13:11:08.245Z,16.62
2019-05-18T13:13:39.290Z,13.20
2019-05-18T13:16:10.302Z,11.73
2019-05-18T13:18:41.309Z,10.30
2019-05-18T13:21:12.393Z,6.42
2019-05-18T13:23:43.342Z,6.00
2019-05-18T13:26:15.011Z,8.20
2019-05-18T13:28:46.013Z,8.50
2019-05-18T13:31:17.005Z,6.25
2019-05-18T13:33:51.273Z,7.40
2019-05-18T13:36:31.349Z,7.92
2019-05-18T13:39:26.456Z,8.55
2019-05-18T13:41:57.472Z,7.97
2019-05-18T13:44:28.543Z,7.58
2019-05-18T13:46:59.468Z,7.60
2019-05-18T13:49:30.441Z,7.72
2019-05-18T13:52:01.405Z,7.60
2019-05-18T13:54:33.483Z,7.87
2019-05-18T13:57:04.857Z,7.53
2019-05-18T13:59:36.052Z,7.62
2019-05-18T14:02:07.006Z,6.70
2019-05-18T14:04:38.082Z,6.58
2019-05-18T14:07:09.036Z,5.97
2019-05-18T14:09:40.604Z,6.95
2019-05-18T14:12:11.779Z,7.03
2019-05-18T14:14:42.889Z,6.78
2019-05-18T14:17:13.908Z,7.28
2019-05-18T14:19:45.112Z,7.03
2019-05-18T14:22:16.195Z,7.17
2019-05-18T14:24:47.108Z,6.25
2019-05-18T14:27:18.387Z,6.78
2019-05-18T14:29:49.763Z,6.05
2019-05-18T14:32:20.792Z,7.20
2019-05-18T14:34:51.806Z,7.12
2019-05-18T14:37:22.902Z,6.60
2019-05-18T14:39:54.153Z,7.22
2019-05-18T14:42:25.099Z,6.62
2019-05-18T14:44:56.098Z,6.12
2019-05-18T14:47:27.632Z,6.85
2019-05-18T14:49:59.167Z,5.33
2019-05-18T14:52:30.123Z,6.55
2019-05-18T14:55:01.470Z,6.05
2019-05-18T14:57:33.178Z,8.55
2019-05-18T15:00:04.965Z,7.47
2019-05-18T15:02:35.974Z,7.22
2019-05-18T15:05:07.818Z,6.08
2019-05-18T15:07:38.769Z,7.42
2019-05-18T15:10:10.293Z,5.90
2019-05-18T15:12:41.369Z,6.92
2019-05-18T15:15:12.865Z,6.28
2019-05-18T15:17:43.825Z,6.40
2019-05-18T15:20:15.668Z,6.70
2019-05-18T15:22:47.119Z,6.50
2019-05-18T15:25:18.587Z,8.00
2019-05-18T15:27:49.861Z,5.78
2019-05-18T15:30:21.083Z,6.30
2019-05-18T15:32:52.383Z,5.60
2019-05-18T15:35:23.452Z,7.00
2019-05-18T15:37:54.543Z,5.08
2019-05-18T15:40:25.569Z,8.25
2019-05-18T15:42:56.580Z,10.43
2019-05-18T15:45:27.667Z,5.35
2019-05-18T15:47:59.415Z,6.30
2019-05-18T15:50:30.436Z,6.10
2019-05-18T15:53:01.330Z,5.92
2019-05-18T15:55:32.729Z,4.97
2019-05-18T15:58:03.799Z,5.53
2019-05-18T16:00:35.777Z,5.37
2019-05-18T16:03:06.758Z,5.25
2019-05-18T16:05:37.703Z,5.20
2019-05-18T16:08:09.100Z,4.28
2019-05-18T16:10:40.089Z,4.58
2019-05-18T16:13:11.108Z,4.47
2019-05-18T16:15:43.531Z,5.72
2019-05-18T16:18:14.553Z,4.58
2019-05-18T16:20:45.620Z,4.65
2019-05-18T16:23:16.547Z,4.67
2019-05-18T16:25:47.562Z,4.87
2019-05-18T16:28:19.624Z,5.37
2019-05-18T16:30:50.658Z,5.37
2019-05-18T16:33:21.651Z,5.20
2019-05-18T16:35:52.925Z,4.87
2019-05-18T16:38:24.335Z,4.53
2019-05-18T16:40:55.348Z,5.00
2019-05-18T16:43:26.784Z,4.90
2019-05-18T16:45:58.915Z,6.25
2019-05-18T16:48:30.640Z,6.78
2019-05-18T16:51:01.889Z,9.60
2019-05-18T16:53:32.962Z,9.75
2019-05-18T16:56:03.908Z,11.03
2019-05-18T16:58:35.278Z,10.53
2019-05-18T17:01:06.371Z,9.78
2019-05-18T17:03:37.440Z,9.45
2019-05-18T17:06:08.642Z,7.25
2019-05-18T17:08:39.908Z,6.30
2019-05-18T17:11:11.415Z,5.28
2019-05-18T17:13:42.807Z,3.75
2019-05-18T17:16:14.287Z,4.25
2019-05-18T17:18:45.735Z,4.90
2019-05-18T17:21:16.878Z,4.35
2019-05-18T17:23:47.920Z,4.65
2019-05-18T17:26:19.433Z,4.30
2019-05-18T17:28:50.615Z,4.40
2019-05-18T17:31:21.730Z,3.90
2019-05-18T17:33:53.165Z,4.37
2019-05-18T17:36:24.748Z,4.12
2019-05-18T17:38:56.179Z,3.72
2019-05-18T17:41:27.604Z,3.85
2019-05-18T17:43:58.625Z,5.60
2019-05-18T17:46:30.018Z,6.72
2019-05-18T17:49:02.161Z,8.50
2019-05-18T17:51:33.285Z,8.33
2019-05-18T17:54:04.671Z,8.43
2019-05-18T17:56:35.695Z,8.25
2019-05-18T17:59:06.797Z,8.58
2019-05-18T18:01:37.914Z,8.98
2019-05-18T18:04:09.445Z,9.08
2019-05-18T18:06:40.565Z,7.83
2019-05-18T18:09:11.678Z,8.45
2019-05-18T18:11:42.739Z,8.35
2019-05-18T18:14:13.938Z,8.78
2019-05-18T18:16:45.118Z,11.18
2019-05-18T18:19:16.311Z,10.10
2019-05-18T18:21:47.442Z,11.18
2019-05-18T18:24:18.509Z,7.30
2019-05-18T18:26:49.937Z,8.13
2019-05-18T18:29:21.020Z,7.20
2019-05-18T18:31:52.406Z,6.50
2019-05-18T18:34:24.687Z,6.50
2019-05-18T18:36:55.788Z,6.15
2019-05-18T18:39:26.907Z,6.15
2019-05-18T18:41:58.856Z,6.05
2019-05-18T18:44:29.883Z,6.80
2019-05-18T18:47:01.685Z,7.05
2019-05-18T18:49:33.203Z,6.33
2019-05-18T18:52:04.319Z,8.20
2019-05-18T18:54:35.483Z,8.95
2019-05-18T18:57:06.503Z,9.93
2019-05-18T18:59:37.554Z,9.18
2019-05-18T19:02:08.643Z,9.63
2019-05-18T19:04:40.131Z,8.83
2019-05-18T19:07:12.580Z,7.42
2019-05-18T19:09:44.059Z,7.95
2019-05-18T19:12:15.097Z,8.55
2019-05-18T19:14:46.248Z,7.42
2019-05-18T19:17:17.595Z,7.65
2019-05-18T19:19:49.091Z,6.90
2019-05-18T19:22:20.478Z,6.95
2019-05-18T19:24:55.255Z,6.53
2019-05-18T19:27:24.799Z,7.17
2019-05-18T19:29:55.895Z,7.50
2019-05-18T19:32:27.059Z,6.83
2019-05-18T19:34:58.151Z,7.53
2019-05-18T19:37:29.167Z,8.70
2019-05-18T19:40:00.652Z,8.87
2019-05-18T19:42:32.196Z,9.93
2019-05-18T19:45:03.327Z,9.00
2019-05-18T19:47:35.071Z,8.78
2019-05-18T19:50:06.659Z,9.35
2019-05-18T19:52:37.831Z,9.07
2019-05-18T19:55:09.415Z,8.50
2019-05-18T19:57:40.564Z,8.73
2019-05-18T20:00:12.241Z,8.50
2019-05-18T20:02:43.451Z,9.30
2019-05-18T20:05:15.320Z,8.60
2019-05-18T20:07:46.875Z,8.67
2019-05-18T20:10:18.358Z,9.13
2019-05-18T20:12:49.410Z,8.60
2019-05-18T20:15:21.977Z,8.70
2019-05-18T20:17:53.447Z,8.77
2019-05-18T20:20:24.874Z,9.73
2019-05-18T20:22:56.013Z,8.97
2019-05-18T20:25:27.290Z,8.93
2019-05-18T20:27:58.602Z,8.87
2019-05-18T20:30:29.656Z,8.50
2019-05-18T20:33:01.055Z,6.90
2019-05-18T20:35:32.114Z,7.60
2019-05-18T20:38:03.214Z,7.20
2019-05-18T20:40:34.181Z,8.20
2019-05-18T20:43:05.278Z,9.20
2019-05-18T20:45:36.669Z,10.30
2019-05-18T20:48:07.692Z,8.80
2019-05-18T20:50:38.730Z,12.20
2019-05-18T20:53:09.815Z,12.70
2019-05-18T20:55:41.889Z,11.77
2019-05-18T20:58:12.893Z,12.93
2019-05-18T21:00:45.894Z,14.13
2019-05-18T21:03:16.914Z,13.80
2019-05-18T21:05:48.510Z,14.57
2019-05-18T21:08:19.801Z,15.03
2019-05-18T21:10:51.846Z,13.77
2019-05-18T21:13:23.067Z,13.77
2019-05-18T21:15:55.835Z,15.20
2019-05-18T21:18:27.177Z,16.30
2019-05-18T21:20:58.892Z,15.60
2019-05-18T21:23:29.838Z,14.50
2019-05-18T21:26:00.862Z,15.83
2019-05-18T21:28:31.962Z,14.87
2019-05-18T21:31:02.904Z,14.57
2019-05-18T21:33:33.856Z,16.70
2019-05-18T21:36:04.931Z,16.13
2019-05-18T21:38:35.955Z,16.97
2019-05-18T21:41:07.273Z,14.97
2019-05-18T21:43:38.292Z,16.57
2019-05-18T21:46:09.280Z,15.60
2019-05-18T21:48:40.638Z,15.77
2019-05-18T21:51:12.372Z,15.50
2019-05-18T21:53:43.653Z,16.50
2019-05-18T21:56:14.631Z,16.80
2019-05-18T21:58:45.575Z,17.50
2019-05-18T22:01:16.994Z,15.60
2019-05-18T22:03:48.366Z,17.47
2019-05-18T22:06:19.927Z,16.17
2019-05-18T22:08:50.885Z,17.00
2019-05-18T22:11:22.282Z,16.37
2019-05-18T22:13:53.400Z,16.50
2019-05-18T22:16:24.864Z,16.47
2019-05-18T22:18:56.316Z,15.90
2019-05-18T22:21:27.698Z,16.40
2019-05-18T22:23:58.749Z,16.53
2019-05-18T22:26:30.292Z,16.90
2019-05-18T22:29:01.285Z,17.77
2019-05-18T22:31:32.544Z,18.90
2019-05-18T22:34:03.872Z,17.93
2019-05-18T22:36:34.909Z,17.17
2019-05-18T22:39:07.085Z,17.57
2019-05-18T22:41:38.448Z,16.93
2019-05-18T22:44:09.803Z,18.13
2019-05-18T22:46:41.513Z,18.63
2019-05-18T22:49:12.557Z,18.73
2019-05-18T22:51:43.638Z,19.13
2019-05-18T22:54:14.680Z,21.67
2019-05-18T22:56:45.710Z,22.73
2019-05-18T22:59:17.380Z,27.13
2019-05-18T23:01:48.311Z,26.87
2019-05-18T23:04:20.763Z,30.50
2019-05-18T23:06:51.708Z,33.33
2019-05-18T23:09:24.386Z,31.00
2019-05-18T23:11:56.173Z,34.73
2019-05-18T23:14:28.024Z,34.40
2019-05-18T23:16:59.129Z,33.73
2019-05-18T23:19:30.071Z,35.00
2019-05-18T23:22:01.088Z,33.50
2019-05-18T23:24:33.521Z,34.20
2019-05-18T23:27:05.013Z,36.87
2019-05-18T23:29:36.003Z,34.77
2019-05-18T23:32:07.045Z,34.57
2019-05-18T23:34:38.513Z,35.23
2019-05-18T23:37:09.802Z,36.40
2019-05-18T23:39:40.899Z,37.23
2019-05-18T23:42:12.329Z,37.40
2019-05-18T23:44:43.654Z,37.93
2019-05-18T23:47:15.316Z,37.00
2019-05-18T23:49:47.297Z,36.83
2019-05-18T23:52:18.921Z,37.57
2019-05-18T23:54:50.315Z,39.53
2019-05-18T23:57:22.386Z,39.57
2019-05-18T23:59:53.682Z,39.20
